createdAt,value
2023-05-01T00:02:07.661Z,12.43
2023-05-01T00:06:54.762Z,12.41
2023-05-01T00:11:54.753Z,12.5
2023-05-01T00:16:54.764Z,12.39
2023-05-01T00:21:54.755Z,12.29
2023-05-01T00:26:54.767Z,12.21
2023-05-01T00:31:54.767Z,12.18
2023-05-01T00:36:54.809Z,12.16
2023-05-01T00:41:54.772Z,12.17
2023-05-01T00:46:54.761Z,12.28
2023-05-01T00:51:54.773Z,12.36
2023-05-01T00:56:54.763Z,12.49
2023-05-01T01:02:13.698Z,12.23
2023-05-01T01:06:54.825Z,12.02
2023-05-01T01:11:54.766Z,11.9
2023-05-01T01:16:54.779Z,11.85
2023-05-01T01:21:54.768Z,11.97
2023-05-01T01:26:54.781Z,11.92
2023-05-01T01:31:54.781Z,11.92
2023-05-01T01:36:54.782Z,11.95
2023-05-01T01:41:54.785Z,11.9
2023-05-01T01:46:54.774Z,11.94
2023-05-01T01:51:54.785Z,11.72
2023-05-01T01:56:54.776Z,11.67
2023-05-01T02:02:19.665Z,11.75
2023-05-01T02:06:54.788Z,11.79
2023-05-01T02:11:54.779Z,11.78
2023-05-01T02:16:54.790Z,11.72
2023-05-01T02:21:54.782Z,11.61
2023-05-01T02:26:54.793Z,11.54
2023-05-01T02:31:54.795Z,11.67
2023-05-01T02:36:54.795Z,11.62
2023-05-01T02:41:54.797Z,11.65
2023-05-01T02:46:54.787Z,11.53
2023-05-01T02:51:54.798Z,11.48
2023-05-01T02:56:54.789Z,11.6
2023-05-01T03:02:09.195Z,11.59
2023-05-01T03:06:54.801Z,11.7
2023-05-01T03:11:54.792Z,11.84
2023-05-01T03:16:54.803Z,11.79
2023-05-01T03:21:54.794Z,11.79
2023-05-01T03:26:54.805Z,11.92
2023-05-01T03:31:54.806Z,12.12
2023-05-01T03:36:54.808Z,12.08
2023-05-01T03:41:54.849Z,12.2
2023-05-01T03:46:54.800Z,12.33
2023-05-01T03:51:54.811Z,12.33
2023-05-01T03:56:54.802Z,12.17
2023-05-01T04:02:09.243Z,12.38
2023-05-01T04:06:54.814Z,12.46
2023-05-01T04:12:11.293Z,12.65
2023-05-01T04:16:54.816Z,12.83
2023-05-01T04:21:54.808Z,12.92
2023-05-01T04:26:54.819Z,13.08
2023-05-01T04:31:54.810Z,13.3
2023-05-01T04:36:54.821Z,13.36
2023-05-01T04:41:54.822Z,13.34
2023-05-01T04:46:54.813Z,13.2
2023-05-01T04:51:54.826Z,13.27
2023-05-01T04:56:54.816Z,13.51
2023-05-01T05:01:54.827Z,13.54
2023-05-01T05:06:54.828Z,13.84
2023-05-01T05:11:54.829Z,14.04
2023-05-01T05:21:54.822Z,14.51
2023-05-01T05:26:54.833Z,14.77
2023-05-01T05:31:54.823Z,14.96
2023-05-01T05:36:54.835Z,15.03
2023-05-01T05:41:54.837Z,14.88
2023-05-01T05:46:54.828Z,14.88
2023-05-01T05:51:54.839Z,14.96
2023-05-01T05:56:54.830Z,15.03
2023-05-01T06:01:54.842Z,15.24
2023-05-01T06:07:11.322Z,15.15
2023-05-01T06:11:54.845Z,15.31
2023-05-01T06:16:54.847Z,15.15
2023-05-01T06:21:54.837Z,14.9
2023-05-01T06:26:54.849Z,14.81
2023-05-01T06:31:54.839Z,14.86
2023-05-01T06:36:54.851Z,15.05
2023-05-01T06:41:54.854Z,14.99
2023-05-01T06:46:54.844Z,14.64
2023-05-01T06:51:54.856Z,14.28
2023-05-01T06:56:54.847Z,14.32
2023-05-01T07:01:54.858Z,14.2
2023-05-01T07:06:54.860Z,14.2
2023-05-01T07:11:54.860Z,14.34
2023-05-01T07:16:54.912Z,14.37
2023-05-01T07:21:54.853Z,14.45
2023-05-01T07:26:54.865Z,14.81
2023-05-01T07:31:54.855Z,14.79
2023-05-01T07:36:54.891Z,14.73
2023-05-01T07:41:54.869Z,14.94
2023-05-01T07:46:54.872Z,14.87
2023-05-01T07:51:54.872Z,15.05
2023-05-01T07:56:54.862Z,15.34
2023-05-01T08:01:54.874Z,15.61
2023-05-01T08:06:54.865Z,15.76
2023-05-01T08:11:54.876Z,15.71
2023-05-01T08:16:54.879Z,15.82
2023-05-01T08:21:54.869Z,15.93
2023-05-01T08:26:54.882Z,15.73
2023-05-01T08:31:54.871Z,15.79
2023-05-01T08:36:54.883Z,15.69
2023-05-01T08:41:54.886Z,15.87
2023-05-01T08:46:54.886Z,16.12
2023-05-01T08:51:54.889Z,15.99
2023-05-01T08:56:54.879Z,16
2023-05-01T09:01:54.890Z,15.93
2023-05-01T09:06:54.881Z,16.14
2023-05-01T09:11:54.893Z,16.32
2023-05-01T09:16:54.896Z,16.4
2023-05-01T09:21:54.886Z,16.69
2023-05-01T09:26:54.899Z,16.73
2023-05-01T09:31:54.889Z,16.77
2023-05-01T09:36:54.901Z,16.49
2023-05-01T09:41:54.903Z,16.6
2023-05-01T09:46:54.904Z,16.77
2023-05-01T09:51:54.906Z,16.4
2023-05-01T09:56:54.896Z,16.86
2023-05-01T10:01:54.909Z,17.28
2023-05-01T10:06:54.899Z,17.68
2023-05-01T10:11:54.935Z,17.42
2023-05-01T10:16:54.914Z,17.62
2023-05-01T10:21:54.917Z,18.4
2023-05-01T10:26:54.917Z,19.09
2023-05-01T10:31:54.907Z,19.61
2023-05-01T10:36:54.920Z,20.29
2023-05-01T10:41:54.910Z,20.4
2023-05-01T10:46:54.923Z,20.24
2023-05-01T10:51:54.926Z,20.23
2023-05-01T10:56:54.916Z,20.57
2023-05-01T11:01:54.930Z,20.84
2023-05-01T11:06:54.920Z,21.01
2023-05-01T11:11:54.933Z,22.16
2023-05-01T11:16:54.935Z,21.4
2023-05-01T11:21:54.936Z,21.45
2023-05-01T11:26:54.939Z,22.12
2023-05-01T11:31:54.929Z,22.51
2023-05-01T11:36:54.942Z,22.68
2023-05-01T11:41:54.933Z,23.66
2023-05-01T11:46:54.947Z,24.72
2023-05-01T11:51:54.950Z,25.73
2023-05-01T11:56:54.940Z,25.23
2023-05-01T12:01:54.954Z,24.69
2023-05-01T12:06:54.946Z,24.81
2023-05-01T12:11:54.958Z,24.98
2023-05-01T12:16:54.961Z,24.76
2023-05-01T12:21:54.962Z,25.15
2023-05-01T12:26:54.965Z,24.3
2023-05-01T12:31:54.956Z,24.02
2023-05-01T12:36:54.970Z,24.32
2023-05-01T12:41:54.960Z,24.61
2023-05-01T12:46:54.973Z,24.65
2023-05-01T12:51:54.977Z,24.58
2023-05-01T12:56:54.968Z,24.63
2023-05-01T13:01:54.981Z,24.12
2023-05-01T13:06:54.971Z,23.91
2023-05-01T13:11:54.984Z,24.77
2023-05-01T13:16:54.976Z,25.2
2023-05-01T13:21:54.989Z,25.22
2023-05-01T13:26:55.056Z,24.83
2023-05-01T13:31:54.982Z,24.32
2023-05-01T13:36:55.041Z,24.26
2023-05-01T13:41:54.987Z,24.47
2023-05-01T13:47:11.477Z,24.61
2023-05-01T13:51:55.003Z,24.98
2023-05-01T13:56:55.005Z,25.73
2023-05-01T14:01:55.008Z,26.28
2023-05-01T14:06:54.998Z,26.51
2023-05-01T14:11:55.012Z,26.14
2023-05-01T14:16:55.002Z,26.54
2023-05-01T14:21:55.017Z,27.11
2023-05-01T14:26:55.019Z,26.04
2023-05-01T14:31:55.009Z,25.47
2023-05-01T14:36:55.024Z,24.88
2023-05-01T14:41:55.014Z,25.48
2023-05-01T14:46:55.028Z,26.98
2023-05-01T14:51:55.031Z,28.04
2023-05-01T14:56:55.033Z,27.66
2023-05-01T15:01:55.035Z,26.37
2023-05-01T15:06:55.026Z,25.94
2023-05-01T15:11:55.039Z,26.2
2023-05-01T15:16:55.030Z,27.18
2023-05-01T15:21:55.045Z,27.56
2023-05-01T15:26:55.047Z,28.07
2023-05-01T15:31:55.037Z,26.91
2023-05-01T15:36:55.052Z,25.24
2023-05-01T15:41:55.043Z,24.59
2023-05-01T15:46:55.056Z,23.63
2023-05-01T15:51:55.058Z,22.99
2023-05-01T15:56:55.061Z,22.38
2023-05-01T16:01:55.063Z,22.58
2023-05-01T16:06:55.053Z,22.96
2023-05-01T16:11:55.119Z,23.33
2023-05-01T16:16:55.057Z,23.07
2023-05-01T16:21:55.071Z,22.2
2023-05-01T16:26:55.073Z,21.88
2023-05-01T16:31:55.063Z,21.82
2023-05-01T16:36:55.077Z,21.55
2023-05-01T16:41:55.067Z,21.27
2023-05-01T16:46:55.081Z,21
2023-05-01T16:51:55.071Z,20.88
2023-05-01T16:56:55.085Z,21.07
2023-05-01T17:01:55.087Z,20.82
2023-05-01T17:06:55.077Z,20.52
2023-05-01T17:11:55.091Z,20.27
2023-05-01T17:16:55.081Z,19.96
2023-05-01T17:21:55.095Z,19.83
2023-05-01T17:26:55.097Z,19.84
2023-05-01T17:31:55.099Z,19.87
2023-05-01T17:36:55.101Z,20.06
2023-05-01T17:41:55.090Z,19.84
2023-05-01T17:46:55.103Z,19.68
2023-05-01T17:51:55.095Z,19.42
2023-05-01T17:56:55.108Z,19.28
2023-05-01T18:01:55.110Z,19.09
2023-05-01T18:06:55.100Z,18.79
2023-05-01T18:11:55.113Z,18.77
2023-05-01T18:16:55.103Z,18.74
2023-05-01T18:21:55.117Z,18.58
2023-05-01T18:26:55.118Z,18.43
2023-05-01T18:31:55.120Z,18.2
2023-05-01T18:36:55.122Z,18.12
2023-05-01T18:41:55.112Z,18.01
2023-05-01T18:46:55.150Z,17.89
2023-05-01T18:51:55.116Z,17.89
2023-05-01T18:56:55.129Z,17.86
2023-05-01T19:01:55.131Z,17.79
2023-05-01T19:06:55.132Z,17.69
2023-05-01T19:11:55.133Z,17.68
2023-05-01T19:16:55.124Z,17.7
2023-05-01T19:21:55.137Z,17.58
2023-05-01T19:26:55.128Z,17.54
2023-05-01T19:31:55.141Z,17.37
2023-05-01T19:36:55.142Z,17.2
2023-05-01T19:41:55.132Z,16.96
2023-05-01T19:46:55.146Z,16.73
2023-05-01T19:51:55.136Z,16.51
2023-05-01T19:56:55.149Z,16.4
2023-05-01T20:01:55.149Z,16.49
2023-05-01T20:06:55.152Z,16.6
2023-05-01T20:11:55.152Z,16.35
2023-05-01T20:16:55.143Z,16.24
2023-05-01T20:21:55.156Z,16.06
2023-05-01T20:26:55.147Z,15.95
2023-05-01T20:31:55.159Z,15.9
2023-05-01T20:36:55.160Z,15.9
2023-05-01T20:41:55.150Z,15.9
2023-05-01T20:46:55.165Z,15.94
2023-05-01T20:51:55.154Z,15.79
2023-05-01T20:56:55.167Z,15.5
2023-05-01T21:01:55.167Z,15.4
2023-05-01T21:06:55.170Z,15.22
2023-05-01T21:11:55.172Z,15.12
2023-05-01T21:16:55.161Z,15.08
2023-05-01T21:21:55.225Z,14.94
2023-05-01T21:27:11.641Z,14.9
2023-05-01T21:31:55.177Z,14.84
2023-05-01T21:36:55.177Z,14.71
2023-05-01T21:41:55.168Z,14.64
2023-05-01T21:46:55.180Z,14.63
2023-05-01T21:51:55.170Z,14.57
2023-05-01T21:56:55.184Z,14.49
2023-05-01T22:01:55.174Z,14.49
2023-05-01T22:06:55.186Z,14.5
2023-05-01T22:11:55.187Z,14.45
2023-05-01T22:16:55.177Z,14.38
2023-05-01T22:21:55.191Z,14.23
2023-05-01T22:26:55.181Z,14.26
2023-05-01T22:31:55.193Z,14.23
2023-05-01T22:36:55.193Z,14.28
2023-05-01T22:41:55.196Z,14.22
2023-05-01T22:46:55.198Z,14.05
2023-05-01T22:51:55.187Z,13.91
2023-05-01T22:56:55.200Z,13.75
2023-05-01T23:01:55.190Z,13.66
2023-05-01T23:06:55.202Z,13.53
2023-05-01T23:11:55.203Z,13.67
2023-05-01T23:16:55.194Z,13.81
2023-05-01T23:21:55.205Z,13.82
2023-05-01T23:26:55.196Z,13.75
2023-05-01T23:31:55.209Z,13.65
2023-05-01T23:36:55.209Z,13.55
2023-05-01T23:41:55.211Z,13.34
2023-05-01T23:46:55.212Z,13.34
2023-05-01T23:51:55.203Z,13.35
2023-05-01T23:56:55.215Z,13.27
